Time;durP1;ratioP1;P1;durP2;ratioP2;P2;SDS_P1;SDS_P2;PMS_P1;PMS_P2;Temp;Humidity;BMP_temperature;BMP_pressure;BME280_temperature;BME280_humidity;BME280_pressure;Samples;Min_cycle;Max_cycle;Signal;HPM_P1;HPM_P2
2022/09/04 00:02:20;;;;;;;;;;;19.80;99.90;;;;;;5033782;28;19951;-79
2022/09/04 00:04:53;;;;;;;;;;;19.80;99.90;;;;;;5033405;28;19983;-79
2022/09/04 00:07:42;;;;;;;;;;;19.80;99.90;;;;;;5033682;28;19945;-79
2022/09/04 00:10:11;;;;;;;;;;;19.80;99.90;;;;;;5034140;28;19909;-79
2022/09/04 00:12:43;;;;;;;;;;;19.70;99.90;;;;;;5032295;28;19960;-80
2022/09/04 00:15:27;;;;;;;;;;;19.70;99.90;;;;;;5032126;28;20335;-79
2022/09/04 00:18:04;;;;;;;;;;;19.70;99.90;;;;;;5032135;28;19910;-79
2022/09/04 00:20:44;;;;;;;;;;;19.70;99.90;;;;;;5033330;28;20329;-79
2022/09/04 00:23:19;;;;;;;;;;;19.70;99.90;;;;;;5032305;28;19916;-80
2022/09/04 00:25:49;;;;;;;;;;;19.70;99.90;;;;;;5031908;28;19920;-79
2022/09/04 00:28:24;;;;;;;;;;;19.70;99.90;;;;;;5033502;28;20375;-80
2022/09/04 00:30:58;;;;;;;;;;;19.70;99.90;;;;;;5032138;28;20366;-80
2022/09/04 00:33:31;;;;;;;;;;;19.60;99.90;;;;;;5032223;28;19909;-80
2022/09/04 00:36:01;;;;;;;;;;;19.60;99.90;;;;;;5031802;28;20449;-80
2022/09/04 00:38:36;;;;;;;;;;;19.60;99.90;;;;;;5032065;28;19909;-79
2022/09/04 00:41:20;;;;;;;;;;;19.50;99.90;;;;;;5032027;28;20331;-79
2022/09/04 00:43:46;;;;;;;;;;;19.60;99.90;;;;;;5032106;28;19963;-80
2022/09/04 00:46:30;;;;;;;;;;;19.60;99.90;;;;;;5031718;28;19917;-79
2022/09/04 00:49:02;;;;;;;;;;;19.60;99.90;;;;;;5032357;28;19920;-80
2022/09/04 00:51:36;;;;;;;;;;;19.60;99.90;;;;;;5033025;28;19916;-79
2022/09/04 00:54:02;;;;;;;;;;;19.60;99.90;;;;;;5031962;28;19909;-79
2022/09/04 00:56:34;;;;;;;;;;;19.50;99.90;;;;;;5031797;28;19916;-79
2022/09/04 00:59:07;;;;;;;;;;;19.50;99.90;;;;;;5032938;28;19909;-79
2022/09/04 01:01:32;;;;;;;;;;;19.40;99.90;;;;;;5033329;28;19956;-79
2022/09/04 01:04:06;;;;;;;;;;;19.40;99.90;;;;;;5036476;28;20284;-78
2022/09/04 01:06:32;;;;;;;;;;;19.40;99.90;;;;;;5035354;28;19914;-80
2022/09/04 01:09:12;;;;;;;;;;;19.40;99.90;;;;;;5031562;28;19932;-79
2022/09/04 01:11:38;;;;;;;;;;;19.40;99.90;;;;;;5032651;28;19924;-80
2022/09/04 01:14:11;;;;;;;;;;;19.40;99.90;;;;;;5032568;28;19917;-79
2022/09/04 01:16:45;;;;;;;;;;;19.40;99.90;;;;;;5031217;28;19916;-79
2022/09/04 01:19:27;;;;;;;;;;;19.40;99.90;;;;;;5032947;28;19999;-80
2022/09/04 01:21:52;;;;;;;;;;;19.40;99.90;;;;;;5032777;28;19961;-79
2022/09/04 01:24:37;;;;;;;;;;;19.40;99.90;;;;;;5031507;28;19967;-79
2022/09/04 01:27:08;;;;;;;;;;;19.40;99.90;;;;;;5031163;28;20008;-80
2022/09/04 01:29:42;;;;;;;;;;;19.30;99.90;;;;;;5031296;28;19928;-79
2022/09/04 01:32:08;;;;;;;;;;;19.30;99.90;;;;;;5031346;28;20368;-79
2022/09/04 01:34:36;;;;;;;;;;;19.30;99.90;;;;;;5031100;28;19919;-79
2022/09/04 01:37:25;;;;;;;;;;;19.30;99.90;;;;;;5032424;28;19909;-79
2022/09/04 01:40:11;;;;;;;;;;;19.30;99.90;;;;;;5018348;28;19996;-79
2022/09/04 01:42:44;;;;;;;;;;;19.30;99.90;;;;;;5039608;28;19963;-79
2022/09/04 01:45:10;;;;;;;;;;;19.30;99.90;;;;;;5041303;28;19914;-79
2022/09/04 01:47:41;;;;;;;;;;;19.30;99.90;;;;;;5031109;28;19913;-80
2022/09/04 01:50:10;;;;;;;;;;;19.30;99.90;;;;;;5032519;28;19916;-80
2022/09/04 01:52:44;;;;;;;;;;;19.30;99.90;;;;;;5031261;28;19953;-79
2022/09/04 01:55:16;;;;;;;;;;;19.30;99.90;;;;;;5036034;28;20451;-79
2022/09/04 01:58:00;;;;;;;;;;;19.30;99.90;;;;;;5038161;28;19928;-78
2022/09/04 02:00:28;;;;;;;;;;;19.40;99.90;;;;;;5039020;28;19913;-78
2022/09/04 02:03:18;;;;;;;;;;;19.40;99.90;;;;;;5039488;28;19954;-79
2022/09/04 02:06:00;;;;;;;;;;;19.40;99.90;;;;;;5047330;28;20350;-80
2022/09/04 02:08:26;;;;;;;;;;;19.30;99.90;;;;;;5036410;28;20522;-79
2022/09/04 02:11:00;;;;;;;;;;;19.30;99.90;;;;;;5035580;28;19951;-78
2022/09/04 02:13:33;;;;;;;;;;;19.20;99.90;;;;;;5039095;28;19925;-79
2022/09/04 02:16:01;;;;;;;;;;;19.10;99.90;;;;;;5034557;28;19956;-80
2022/09/04 02:18:40;;;;;;;;;;;19.10;99.90;;;;;;5035723;28;19910;-79
2022/09/04 02:21:31;;;;;;;;;;;19.10;99.90;;;;;;5034522;28;19913;-80
2022/09/04 02:24:24;;;;;;;;;;;19.10;99.90;;;;;;5036051;28;19948;-80
2022/09/04 02:27:08;;;;;;;;;;;19.10;99.90;;;;;;5011787;28;19956;-79
2022/09/04 02:29:38;;;;;;;;;;;19.00;99.90;;;;;;5036176;28;20311;-80
2022/09/04 02:32:11;;;;;;;;;;;19.00;99.90;;;;;;5034215;28;19944;-79
2022/09/04 02:34:43;;;;;;;;;;;19.00;99.90;;;;;;5050753;28;19909;-80
2022/09/04 02:37:08;;;;;;;;;;;19.00;99.90;;;;;;5035291;28;19909;-80
2022/09/04 02:39:49;;;;;;;;;;;19.00;99.90;;;;;;5035696;28;19915;-80
2022/09/04 02:42:24;;;;;;;;;;;19.00;99.90;;;;;;5035597;28;19916;-79
2022/09/04 02:45:08;;;;;;;;;;;19.00;99.90;;;;;;5033947;28;19917;-79
2022/09/04 02:47:37;;;;;;;;;;;19.00;99.90;;;;;;5034978;28;20340;-80
2022/09/04 02:50:08;;;;;;;;;;;19.00;99.90;;;;;;5034241;28;19909;-80
2022/09/04 02:52:58;;;;;;;;;;;19.00;99.90;;;;;;5035130;28;19936;-80
2022/09/04 02:55:36;;;;;;;;;;;19.00;99.90;;;;;;5026397;28;19915;-79
2022/09/04 02:58:04;;;;;;;;;;;19.00;99.90;;;;;;5033754;28;19913;-79
2022/09/04 03:00:37;;;;;;;;;;;19.00;99.90;;;;;;5035206;28;19916;-79
2022/09/04 03:03:06;;;;;;;;;;;19.00;99.90;;;;;;5033617;28;19979;-79
2022/09/04 03:05:33;;;;;;;;;;;18.90;99.90;;;;;;5034968;28;19980;-80
2022/09/04 03:08:10;;;;;;;;;;;18.90;99.90;;;;;;5034712;28;20300;-79
2022/09/04 03:10:43;;;;;;;;;;;18.90;99.90;;;;;;5033881;28;19920;-79
2022/09/04 03:13:27;;;;;;;;;;;18.90;99.90;;;;;;5035004;28;19909;-80
2022/09/04 03:15:56;;;;;;;;;;;18.90;99.90;;;;;;5033288;28;19917;-80
2022/09/04 03:18:21;;;;;;;;;;;18.90;99.90;;;;;;5049271;28;19911;-80
2022/09/04 03:20:55;;;;;;;;;;;18.80;99.90;;;;;;5034650;28;19915;-79
2022/09/04 03:23:31;;;;;;;;;;;18.80;99.90;;;;;;5034560;28;20365;-79
2022/09/04 03:26:15;;;;;;;;;;;18.80;99.90;;;;;;5049470;28;19917;-80
2022/09/04 03:29:00;;;;;;;;;;;18.70;99.90;;;;;;5033242;28;19909;-79
2022/09/04 03:31:25;;;;;;;;;;;18.70;99.90;;;;;;5033494;28;19963;-79
2022/09/04 03:34:05;;;;;;;;;;;18.70;99.90;;;;;;5034345;28;19913;-79
2022/09/04 03:36:34;;;;;;;;;;;18.70;99.90;;;;;;5034175;28;19909;-79
2022/09/04 03:39:09;;;;;;;;;;;18.70;99.90;;;;;;5032904;28;19909;-80
2022/09/04 03:41:41;;;;;;;;;;;18.60;99.90;;;;;;5032927;28;20003;-80
2022/09/04 03:44:06;;;;;;;;;;;18.60;99.90;;;;;;5034778;28;19913;-80
2022/09/04 03:46:41;;;;;;;;;;;18.60;99.90;;;;;;5035486;28;19927;-81
2022/09/04 03:49:11;;;;;;;;;;;18.60;99.90;;;;;;5052715;28;19913;-80
2022/09/04 03:51:37;;;;;;;;;;;18.60;99.90;;;;;;5035910;28;19909;-80
2022/09/04 03:54:07;;;;;;;;;;;18.60;99.90;;;;;;5035407;28;19915;-81
2022/09/04 03:56:33;;;;;;;;;;;18.60;99.90;;;;;;5034479;28;19937;-81
2022/09/04 03:59:14;;;;;;;;;;;18.60;99.90;;;;;;5034849;28;20261;-81
2022/09/04 04:01:58;;;;;;;;;;;18.60;99.90;;;;;;5035762;28;19995;-80
2022/09/04 04:04:24;;;;;;;;;;;18.60;99.90;;;;;;5034307;28;20356;-81
2022/09/04 04:06:56;;;;;;;;;;;18.50;99.90;;;;;;5036092;28;19916;-80
2022/09/04 04:09:44;;;;;;;;;;;18.50;99.90;;;;;;5034467;28;19909;-80
2022/09/04 04:12:29;;;;;;;;;;;18.50;99.90;;;;;;5006829;28;19949;-80
2022/09/04 04:15:03;;;;;;;;;;;18.40;99.90;;;;;;5039539;28;20261;-79
2022/09/04 04:17:47;;;;;;;;;;;18.40;99.90;;;;;;5042190;28;19941;-79
2022/09/04 04:20:30;;;;;;;;;;;18.40;99.90;;;;;;5059401;28;19917;-79
2022/09/04 04:23:07;;;;;;;;;;;18.40;99.90;;;;;;5041815;28;19920;-79
2022/09/04 04:25:46;;;;;;;;;;;18.40;99.90;;;;;;5041188;28;19921;-80
2022/09/04 04:28:28;;;;;;;;;;;18.40;99.90;;;;;;5042038;28;19975;-79
2022/09/04 04:31:02;;;;;;;;;;;18.40;99.90;;;;;;5042948;28;20403;-79
2022/09/04 04:33:41;;;;;;;;;;;18.40;99.90;;;;;;5041625;28;19980;-79
2022/09/04 04:36:18;;;;;;;;;;;18.40;99.90;;;;;;5043338;28;19909;-78
2022/09/04 04:38:59;;;;;;;;;;;18.30;99.90;;;;;;5043291;28;19977;-79
2022/09/04 04:42:02;;;;;;;;;;;18.30;99.90;;;;;;5043492;28;19909;-79
2022/09/04 04:47:41;;;;;;;;;;;18.30;99.90;;;;;;5011036;28;19935;-79
2022/09/04 04:50:15;;;;;;;;;;;18.30;99.90;;;;;;5040928;28;20483;-79
2022/09/04 04:52:46;;;;;;;;;;;18.30;99.90;;;;;;5040670;28;20388;-79
2022/09/04 04:55:20;;;;;;;;;;;18.30;99.90;;;;;;5040129;28;19909;-79
2022/09/04 04:58:04;;;;;;;;;;;18.30;99.90;;;;;;5040858;28;19917;-79
2022/09/04 05:00:29;;;;;;;;;;;18.30;99.90;;;;;;5040239;28;19909;-79
2022/09/04 05:03:07;;;;;;;;;;;18.30;99.90;;;;;;5041225;28;19979;-79
2022/09/04 05:05:46;;;;;;;;;;;18.30;99.90;;;;;;5040075;28;19913;-79
2022/09/04 05:08:16;;;;;;;;;;;18.30;99.90;;;;;;5039618;28;19948;-79
2022/09/04 05:10:47;;;;;;;;;;;18.30;99.90;;;;;;5039685;28;19959;-79
2022/09/04 05:13:19;;;;;;;;;;;18.30;99.90;;;;;;5040642;28;19909;-79
2022/09/04 05:15:53;;;;;;;;;;;18.30;99.90;;;;;;5038852;28;19917;-79
2022/09/04 05:18:27;;;;;;;;;;;18.30;99.90;;;;;;5039449;28;20004;-79
2022/09/04 05:20:56;;;;;;;;;;;18.40;99.90;;;;;;5039482;28;20320;-79
2022/09/04 05:23:30;;;;;;;;;;;18.40;99.90;;;;;;5040462;28;19917;-79
2022/09/04 05:25:56;;;;;;;;;;;18.40;99.90;;;;;;5039638;28;19963;-79
2022/09/04 05:28:40;;;;;;;;;;;18.40;99.90;;;;;;5040481;28;19909;-79
2022/09/04 05:31:10;;;;;;;;;;;18.40;99.90;;;;;;5041560;28;19913;-79
2022/09/04 05:33:47;;;;;;;;;;;18.40;99.90;;;;;;5039461;28;20000;-79
2022/09/04 05:36:13;;;;;;;;;;;18.40;99.90;;;;;;5039558;28;20364;-79
2022/09/04 05:38:57;;;;;;;;;;;18.50;99.90;;;;;;5040807;28;19932;-79
2022/09/04 05:41:25;;;;;;;;;;;18.50;99.90;;;;;;5038951;28;19915;-79
2022/09/04 05:44:10;;;;;;;;;;;18.50;99.90;;;;;;5042711;28;19917;-79
2022/09/04 05:46:53;;;;;;;;;;;18.60;99.90;;;;;;5043767;28;19932;-78
2022/09/04 05:49:25;;;;;;;;;;;18.70;99.90;;;;;;5042835;28;20379;-79
2022/09/04 05:51:50;;;;;;;;;;;18.80;99.90;;;;;;5045085;28;19959;-78
2022/09/04 05:54:52;;;;;;;;;;;18.80;99.90;;;;;;5042631;28;20294;-79
2022/09/04 05:57:53;;;;;;;;;;;18.90;99.90;;;;;;5002357;28;20424;-79
2022/09/04 06:00:19;;;;;;;;;;;19.00;99.90;;;;;;4975715;28;19957;-79
2022/09/04 06:02:47;;;;;;;;;;;19.00;99.90;;;;;;5019484;28;19913;-79
2022/09/04 06:05:25;;;;;;;;;;;19.10;99.90;;;;;;5035434;28;20288;-80
2022/09/04 06:07:53;;;;;;;;;;;19.20;99.90;;;;;;5035326;28;19913;-80
2022/09/04 06:10:37;;;;;;;;;;;19.30;99.90;;;;;;5035415;28;19923;-80
2022/09/04 06:13:19;;;;;;;;;;;19.30;99.90;;;;;;5036683;28;19909;-81
2022/09/04 06:15:50;;;;;;;;;;;19.40;99.90;;;;;;5040791;28;19917;-78
2022/09/04 06:18:32;;;;;;;;;;;19.50;99.90;;;;;;5041287;28;19913;-80
2022/09/04 06:21:23;;;;;;;;;;;19.70;99.90;;;;;;5036864;28;20276;-80
2022/09/04 06:24:04;;;;;;;;;;;19.70;99.90;;;;;;5012347;28;19992;-81
2022/09/04 06:26:36;;;;;;;;;;;19.70;99.90;;;;;;5035348;28;20280;-80
2022/09/04 06:29:07;;;;;;;;;;;19.80;99.90;;;;;;5036724;28;19960;-80
2022/09/04 06:31:52;;;;;;;;;;;19.80;99.90;;;;;;5036419;28;19980;-80
2022/09/04 06:34:20;;;;;;;;;;;19.80;99.90;;;;;;5034797;28;19910;-80
2022/09/04 06:36:46;;;;;;;;;;;19.90;99.90;;;;;;5035972;28;19956;-80
2022/09/04 06:39:14;;;;;;;;;;;20.00;99.90;;;;;;5036173;28;20365;-80
2022/09/04 06:42:00;;;;;;;;;;;20.00;99.90;;;;;;5034797;28;20410;-79
2022/09/04 06:44:28;;;;;;;;;;;20.00;99.90;;;;;;5014480;28;19968;-79
2022/09/04 06:47:02;;;;;;;;;;;20.10;99.90;;;;;;5035732;28;20011;-79
2022/09/04 06:49:34;;;;;;;;;;;20.20;99.90;;;;;;5036352;28;20430;-79
2022/09/04 06:52:11;;;;;;;;;;;20.20;99.90;;;;;;5034394;28;20007;-80
2022/09/04 06:54:47;;;;;;;;;;;20.20;99.90;;;;;;5032543;28;19915;-80
2022/09/04 06:57:25;;;;;;;;;;;20.20;99.90;;;;;;5035010;28;20334;-79
2022/09/04 07:00:02;;;;;;;;;;;20.30;99.90;;;;;;5035078;28;20327;-80
2022/09/04 07:02:47;;;;;;;;;;;20.40;99.90;;;;;;5035020;28;19956;-80
2022/09/04 07:05:18;;;;;;;;;;;20.50;99.90;;;;;;5033500;28;19919;-80
2022/09/04 07:07:43;;;;;;;;;;;20.60;99.90;;;;;;5033467;28;19909;-80
2022/09/04 07:10:19;;;;;;;;;;;20.70;99.90;;;;;;5033489;28;19909;-80
2022/09/04 07:12:51;;;;;;;;;;;20.70;99.90;;;;;;5033302;28;20346;-79
2022/09/04 07:15:16;;;;;;;;;;;20.80;99.90;;;;;;5032990;28;19917;-80
2022/09/04 07:18:01;;;;;;;;;;;20.90;99.90;;;;;;5033216;28;19958;-79
2022/09/04 07:20:36;;;;;;;;;;;21.00;99.90;;;;;;5033417;28;19963;-80
2022/09/04 07:23:21;;;;;;;;;;;21.10;99.90;;;;;;5034478;28;19913;-80
2022/09/04 07:26:05;;;;;;;;;;;21.30;99.90;;;;;;5032944;28;19920;-79
2022/09/04 07:28:46;;;;;;;;;;;21.40;99.90;;;;;;5034154;28;19909;-79
2022/09/04 07:31:19;;;;;;;;;;;21.50;99.90;;;;;;5033179;28;19944;-80
2022/09/04 07:33:44;;;;;;;;;;;21.70;99.90;;;;;;5049555;28;19949;-80
2022/09/04 07:36:17;;;;;;;;;;;21.70;99.90;;;;;;5033896;28;19951;-79
2022/09/04 07:38:48;;;;;;;;;;;21.80;99.90;;;;;;5034230;28;19919;-80
2022/09/04 07:41:20;;;;;;;;;;;21.90;99.90;;;;;;5034070;28;20372;-79
2022/09/04 07:43:53;;;;;;;;;;;22.10;99.90;;;;;;5032793;28;19993;-80
2022/09/04 07:46:39;;;;;;;;;;;22.10;99.90;;;;;;5032402;28;20003;-80
2022/09/04 07:49:08;;;;;;;;;;;22.20;99.90;;;;;;5033791;28;19916;-79
2022/09/04 07:51:55;;;;;;;;;;;22.30;99.90;;;;;;5032622;28;20280;-79
2022/09/04 07:54:28;;;;;;;;;;;22.50;99.90;;;;;;5033822;28;19909;-80
2022/09/04 07:56:53;;;;;;;;;;;22.60;99.90;;;;;;5032306;28;19909;-80
2022/09/04 07:59:34;;;;;;;;;;;22.70;99.90;;;;;;5032434;28;19916;-80
2022/09/04 08:02:11;;;;;;;;;;;22.70;99.90;;;;;;5033543;28;19913;-80
2022/09/04 08:04:42;;;;;;;;;;;22.80;99.90;;;;;;5032982;28;19916;-79
2022/09/04 08:07:11;;;;;;;;;;;22.90;99.90;;;;;;5031954;28;20439;-80
2022/09/04 08:09:49;;;;;;;;;;;22.90;99.90;;;;;;5032257;28;19956;-80
2022/09/04 08:12:34;;;;;;;;;;;23.00;99.90;;;;;;5032015;28;19917;-80
2022/09/04 08:15:05;;;;;;;;;;;23.10;99.90;;;;;;5030385;28;20369;-82
2022/09/04 08:17:40;;;;;;;;;;;23.10;99.90;;;;;;5022958;28;19909;-82
2022/09/04 08:20:11;;;;;;;;;;;23.20;99.90;;;;;;5026546;28;20396;-82
2022/09/04 08:22:49;;;;;;;;;;;23.30;99.90;;;;;;5031641;28;19917;-82
2022/09/04 08:25:41;;;;;;;;;;;23.50;99.90;;;;;;5031275;28;19917;-83
2022/09/04 08:28:33;;;;;;;;;;;23.60;99.90;;;;;;5029994;28;20400;-82
2022/09/04 08:31:09;;;;;;;;;;;23.70;99.90;;;;;;5032737;28;19909;-81
2022/09/04 08:33:53;;;;;;;;;;;23.80;99.90;;;;;;5052622;28;19909;-83
2022/09/04 08:36:22;;;;;;;;;;;24.00;99.90;;;;;;5045338;28;19913;-83
2022/09/04 08:38:54;;;;;;;;;;;24.10;99.90;;;;;;5025576;28;20369;-81
2022/09/04 08:41:31;;;;;;;;;;;24.20;99.90;;;;;;5013208;28;19909;-84
2022/09/04 08:44:15;;;;;;;;;;;24.20;99.90;;;;;;5028303;28;19916;-82
2022/09/04 08:47:00;;;;;;;;;;;24.40;99.90;;;;;;5012327;28;20365;-81
2022/09/04 08:49:41;;;;;;;;;;;24.50;99.90;;;;;;5027813;28;19960;-82
2022/09/04 08:52:21;;;;;;;;;;;24.60;99.90;;;;;;5012896;28;19924;-82
2022/09/04 08:54:57;;;;;;;;;;;24.70;99.90;;;;;;5012713;28;19959;-81
2022/09/04 08:57:26;;;;;;;;;;;24.90;99.90;;;;;;5012298;28;19941;-81
2022/09/04 09:00:06;;;;;;;;;;;26.00;99.90;;;;;;5028102;28;20365;-82
2022/09/04 09:02:31;;;;;;;;;;;27.70;99.90;;;;;;5012929;28;19910;-82
2022/09/04 09:05:12;;;;;;;;;;;29.80;99.90;;;;;;5027811;28;19914;-82
2022/09/04 09:07:57;;;;;;;;;;;31.40;99.90;;;;;;5027575;28;19910;-82
2022/09/04 09:10:28;;;;;;;;;;;33.00;99.90;;;;;;5012811;28;19909;-82
2022/09/04 09:12:57;;;;;;;;;;;34.20;96.10;;;;;;5027974;28;20051;-82
2022/09/04 09:15:32;;;;;;;;;;;35.20;93.20;;;;;;5027809;28;19949;-82
2022/09/04 09:18:01;;;;;;;;;;;36.10;89.00;;;;;;5015687;28;19937;-82
2022/09/04 09:20:44;;;;;;;;;;;36.90;79.70;;;;;;5016892;28;19968;-83
2022/09/04 09:23:16;;;;;;;;;;;37.30;73.70;;;;;;5032122;28;19916;-82
2022/09/04 09:25:53;;;;;;;;;;;38.20;72.70;;;;;;5031255;28;19914;-82
2022/09/04 09:28:18;;;;;;;;;;;39.10;64.20;;;;;;5016959;28;20003;-82
2022/09/04 09:30:49;;;;;;;;;;;39.70;61.40;;;;;;5031969;28;20376;-83
2022/09/04 09:33:34;;;;;;;;;;;40.20;59.00;;;;;;5032139;28;19913;-82
2022/09/04 09:36:28;;;;;;;;;;;40.40;56.00;;;;;;5031452;28;19909;-84
2022/09/04 09:38:57;;;;;;;;;;;40.70;53.50;;;;;;4980860;28;19910;-82
2022/09/04 09:41:31;;;;;;;;;;;41.10;52.50;;;;;;5016527;28;19917;-82
2022/09/04 09:44:02;;;;;;;;;;;40.90;51.10;;;;;;5016515;28;20420;-82
2022/09/04 09:46:31;;;;;;;;;;;40.30;50.60;;;;;;5031263;28;19913;-82
2022/09/04 09:49:02;;;;;;;;;;;39.10;50.30;;;;;;5031728;28;20008;-83
2022/09/04 09:51:47;;;;;;;;;;;37.50;52.80;;;;;;5016404;28;19909;-82
2022/09/04 09:54:15;;;;;;;;;;;36.40;54.00;;;;;;5031501;28;19960;-82
2022/09/04 09:56:56;;;;;;;;;;;35.50;56.60;;;;;;5015609;28;19909;-83
2022/09/04 09:59:29;;;;;;;;;;;35.00;57.60;;;;;;5016261;28;19910;-82
2022/09/04 10:02:20;;;;;;;;;;;34.30;59.10;;;;;;5031992;28;20361;-82
2022/09/04 10:05:04;;;;;;;;;;;33.60;59.50;;;;;;5031620;28;20377;-82
2022/09/04 10:07:29;;;;;;;;;;;32.80;62.30;;;;;;5031816;28;19910;-82
2022/09/04 10:10:13;;;;;;;;;;;32.10;64.00;;;;;;5032161;28;20284;-81
2022/09/04 10:12:45;;;;;;;;;;;31.40;66.30;;;;;;5016090;28;20362;-81
2022/09/04 10:15:19;;;;;;;;;;;30.90;71.90;;;;;;5016557;28;19918;-82
2022/09/04 10:17:53;;;;;;;;;;;30.70;76.10;;;;;;5030828;28;20493;-81
2022/09/04 10:20:38;;;;;;;;;;;30.60;77.60;;;;;;5031254;28;19910;-81
2022/09/04 10:23:18;;;;;;;;;;;30.70;79.30;;;;;;5031340;28;19949;-81
2022/09/04 10:25:53;;;;;;;;;;;30.60;81.30;;;;;;5015272;28;19975;-81
2022/09/04 10:28:31;;;;;;;;;;;30.40;79.20;;;;;;5031007;28;19921;-81
2022/09/04 10:30:58;;;;;;;;;;;30.10;82.50;;;;;;5032013;28;19909;-81
2022/09/04 10:33:30;;;;;;;;;;;29.60;85.40;;;;;;5015953;28;19909;-81
2022/09/04 10:36:16;;;;;;;;;;;29.40;88.50;;;;;;5030609;28;19963;-81
2022/09/04 10:41:52;;;;;;;;;;;29.30;90.20;;;;;;5010868;28;19916;-81
2022/09/04 10:44:27;;;;;;;;;;;29.30;91.30;;;;;;5031156;28;19960;-81
2022/09/04 10:47:09;;;;;;;;;;;29.40;90.40;;;;;;5030559;28;19914;-82
2022/09/04 10:49:40;;;;;;;;;;;29.50;90.90;;;;;;5030324;28;20468;-81
2022/09/04 10:52:39;;;;;;;;;;;29.30;91.00;;;;;;5030412;28;19999;-81
2022/09/04 10:55:20;;;;;;;;;;;29.20;91.80;;;;;;4991740;28;20365;-81
2022/09/04 10:58:04;;;;;;;;;;;28.90;90.90;;;;;;5029587;28;19920;-81
2022/09/04 11:00:36;;;;;;;;;;;28.70;91.50;;;;;;5014984;28;19996;-80
2022/09/04 11:03:10;;;;;;;;;;;28.60;91.00;;;;;;5030087;28;20358;-80
2022/09/04 11:05:52;;;;;;;;;;;28.60;92.50;;;;;;5014131;28;19918;-80
2022/09/04 11:08:35;;;;;;;;;;;28.60;93.60;;;;;;5031954;28;19910;-81
2022/09/04 11:11:03;;;;;;;;;;;28.60;92.20;;;;;;5029977;28;19980;-80
2022/09/04 11:13:34;;;;;;;;;;;28.70;93.50;;;;;;5014553;28;19917;-80
2022/09/04 11:16:19;;;;;;;;;;;28.70;92.60;;;;;;5029201;28;19956;-80
2022/09/04 11:18:52;;;;;;;;;;;28.90;92.70;;;;;;5029959;28;19910;-81
2022/09/04 11:21:36;;;;;;;;;;;29.00;91.30;;;;;;5015270;28;19909;-80
2022/09/04 11:24:01;;;;;;;;;;;29.10;92.20;;;;;;5029914;28;19910;-80
2022/09/04 11:26:46;;;;;;;;;;;29.30;92.70;;;;;;5013822;28;19936;-80
2022/09/04 11:29:23;;;;;;;;;;;29.40;92.70;;;;;;5014537;28;19915;-83
2022/09/04 11:31:49;;;;;;;;;;;29.30;91.50;;;;;;5029792;28;19913;-83
2022/09/04 11:34:34;;;;;;;;;;;29.30;91.30;;;;;;5014583;28;19960;-83
2022/09/04 11:37:14;;;;;;;;;;;29.50;90.40;;;;;;5031333;28;19909;-80
2022/09/04 11:39:51;;;;;;;;;;;29.80;91.00;;;;;;5021712;28;19963;-80
2022/09/04 11:42:23;;;;;;;;;;;29.90;89.10;;;;;;5045351;28;19919;-80
2022/09/04 11:44:59;;;;;;;;;;;29.90;90.10;;;;;;5015225;28;19913;-80
2022/09/04 11:47:24;;;;;;;;;;;29.90;88.60;;;;;;5042678;28;20265;-80
2022/09/04 11:50:08;;;;;;;;;;;29.60;86.50;;;;;;5032880;28;19915;-80
2022/09/04 11:52:34;;;;;;;;;;;29.40;86.90;;;;;;5032709;28;19909;-79
2022/09/04 11:55:15;;;;;;;;;;;29.10;87.30;;;;;;5014701;28;19917;-80
2022/09/04 11:57:47;;;;;;;;;;;29.10;89.80;;;;;;5012352;28;19909;-80
2022/09/04 12:00:14;;;;;;;;;;;29.10;89.70;;;;;;5012748;28;19909;-80
2022/09/04 12:03:15;;;;;;;;;;;29.00;85.90;;;;;;5013097;28;19941;-79
2022/09/04 12:05:52;;;;;;;;;;;28.90;88.20;;;;;;4972354;28;19921;-80
2022/09/04 12:08:17;;;;;;;;;;;29.10;90.00;;;;;;5010646;28;19917;-80
2022/09/04 12:11:02;;;;;;;;;;;29.30;90.10;;;;;;5031950;28;19917;-80
2022/09/04 12:13:46;;;;;;;;;;;29.30;89.60;;;;;;5040139;28;20047;-79
2022/09/04 12:16:20;;;;;;;;;;;29.30;87.50;;;;;;5041051;28;19970;-79
2022/09/04 12:19:01;;;;;;;;;;;29.30;85.60;;;;;;5033319;28;19936;-79
2022/09/04 12:21:47;;;;;;;;;;;29.40;87.60;;;;;;5032522;28;19909;-79
2022/09/04 12:24:26;;;;;;;;;;;29.50;84.80;;;;;;5033063;28;20418;-80
2022/09/04 12:26:58;;;;;;;;;;;29.70;87.60;;;;;;5031914;28;19913;-80
2022/09/04 12:29:49;;;;;;;;;;;29.70;86.50;;;;;;5033344;28;19916;-80
2022/09/04 12:32:32;;;;;;;;;;;29.80;86.70;;;;;;5035180;28;20377;-79
2022/09/04 12:35:16;;;;;;;;;;;29.90;88.90;;;;;;5033516;28;19909;-79
2022/09/04 12:37:57;;;;;;;;;;;30.10;86.50;;;;;;5031409;28;19995;-80
2022/09/04 12:40:25;;;;;;;;;;;30.20;84.80;;;;;;5044872;28;20280;-80
2022/09/04 12:43:01;;;;;;;;;;;30.30;85.50;;;;;;5041460;28;19978;-81
2022/09/04 12:45:30;;;;;;;;;;;30.40;85.20;;;;;;5051651;28;20394;-80
2022/09/04 12:48:16;;;;;;;;;;;30.60;84.80;;;;;;5052260;28;19912;-80
2022/09/04 12:50:44;;;;;;;;;;;30.50;83.40;;;;;;5029799;28;20369;-79
2022/09/04 12:53:30;;;;;;;;;;;30.40;82.80;;;;;;5027725;28;19916;-79
2022/09/04 12:56:31;;;;;;;;;;;30.20;79.80;;;;;;5020909;28;19925;-80
2022/09/04 12:59:12;;;;;;;;;;;30.20;78.80;;;;;;5011295;28;19936;-79
2022/09/04 13:01:47;;;;;;;;;;;30.10;80.90;;;;;;5030324;28;19915;-79
2022/09/04 13:04:13;;;;;;;;;;;30.00;81.30;;;;;;5031716;28;19909;-79
2022/09/04 13:06:44;;;;;;;;;;;30.00;80.90;;;;;;5030933;28;20439;-79
2022/09/04 13:09:10;;;;;;;;;;;30.00;82.50;;;;;;5030591;28;19963;-80
2022/09/04 13:11:35;;;;;;;;;;;30.10;82.20;;;;;;5031516;28;19909;-79
2022/09/04 13:14:05;;;;;;;;;;;30.30;84.20;;;;;;5032518;28;19916;-80
2022/09/04 13:16:39;;;;;;;;;;;30.30;82.00;;;;;;5032663;28;19916;-79
2022/09/04 13:19:14;;;;;;;;;;;30.50;84.50;;;;;;5032916;28;19956;-79
2022/09/04 13:21:58;;;;;;;;;;;30.70;85.80;;;;;;5031453;28;20639;-79
2022/09/04 13:24:44;;;;;;;;;;;30.80;84.30;;;;;;5028542;28;19914;-79
2022/09/04 13:27:14;;;;;;;;;;;30.90;85.10;;;;;;5029437;28;20004;-79
2022/09/04 13:29:46;;;;;;;;;;;30.90;84.30;;;;;;5031470;28;20000;-79
2022/09/04 13:32:37;;;;;;;;;;;31.00;82.80;;;;;;5031050;28;20000;-79
2022/09/04 13:35:16;;;;;;;;;;;30.90;79.10;;;;;;5030644;28;19916;-81
2022/09/04 13:37:44;;;;;;;;;;;30.90;81.00;;;;;;5031582;28;19909;-80
2022/09/04 13:40:29;;;;;;;;;;;31.00;75.60;;;;;;5030388;28;19913;-81
2022/09/04 13:43:12;;;;;;;;;;;31.20;76.60;;;;;;5030591;28;20431;-80
2022/09/04 13:45:48;;;;;;;;;;;31.20;73.20;;;;;;5029793;28;19913;-85
2022/09/04 13:48:24;;;;;;;;;;;31.40;76.40;;;;;;5046435;28;19909;-85
2022/09/04 13:50:54;;;;;;;;;;;31.70;80.20;;;;;;5031025;28;20007;-83
2022/09/04 13:53:32;;;;;;;;;;;31.80;80.00;;;;;;5030754;28;19909;-81
2022/09/04 13:55:59;;;;;;;;;;;31.70;74.20;;;;;;5030005;28;20283;-82
2022/09/04 13:58:37;;;;;;;;;;;31.60;73.80;;;;;;5030073;28;19913;-82
2022/09/04 14:01:06;;;;;;;;;;;31.60;71.60;;;;;;5030215;28;19940;-81
2022/09/04 14:03:37;;;;;;;;;;;31.50;74.90;;;;;;5020777;28;19968;-80
2022/09/04 14:06:05;;;;;;;;;;;31.50;71.40;;;;;;5014462;28;19999;-82
2022/09/04 14:08:33;;;;;;;;;;;31.60;71.50;;;;;;5014634;28;19910;-82
2022/09/04 14:11:08;;;;;;;;;;;31.70;73.00;;;;;;5016726;28;19944;-81
2022/09/04 14:13:40;;;;;;;;;;;31.70;72.80;;;;;;5016289;28;19963;-81
2022/09/04 14:16:08;;;;;;;;;;;31.70;72.40;;;;;;5016529;28;19918;-82
2022/09/04 14:18:54;;;;;;;;;;;31.70;71.80;;;;;;5014335;28;19967;-83
2022/09/04 14:21:39;;;;;;;;;;;31.90;72.70;;;;;;5013924;28;19909;-82
2022/09/04 14:24:23;;;;;;;;;;;32.10;72.70;;;;;;5013997;28;19920;-82
2022/09/04 14:27:08;;;;;;;;;;;32.40;66.90;;;;;;5013677;28;19913;-84
2022/09/04 14:29:50;;;;;;;;;;;32.60;69.90;;;;;;5027737;28;19909;-83
2022/09/04 14:32:19;;;;;;;;;;;32.60;67.30;;;;;;5030729;28;19916;-81
2022/09/04 14:34:54;;;;;;;;;;;33.00;71.20;;;;;;5029026;28;19948;-83
2022/09/04 14:37:34;;;;;;;;;;;34.30;67.10;;;;;;5030109;28;19909;-83
2022/09/04 14:40:11;;;;;;;;;;;35.20;61.60;;;;;;5033256;28;19917;-83
2022/09/04 14:42:46;;;;;;;;;;;34.80;63.40;;;;;;5033366;28;19924;-83
2022/09/04 14:45:17;;;;;;;;;;;34.70;62.70;;;;;;5033187;28;19913;-83
2022/09/04 14:47:46;;;;;;;;;;;35.40;62.00;;;;;;5032666;28;19939;-85
2022/09/04 14:50:13;;;;;;;;;;;35.10;61.90;;;;;;5033216;28;19954;-83
2022/09/04 14:52:47;;;;;;;;;;;34.50;60.00;;;;;;5033211;28;20361;-84
2022/09/04 14:55:14;;;;;;;;;;;34.30;60.10;;;;;;5032783;28;19963;-82
2022/09/04 14:57:49;;;;;;;;;;;34.10;58.50;;;;;;5032496;28;19909;-83
2022/09/04 15:00:18;;;;;;;;;;;33.70;59.70;;;;;;5032977;28;19921;-85
2022/09/04 15:02:47;;;;;;;;;;;34.60;62.00;;;;;;5033123;28;19910;-83
2022/09/04 15:05:21;;;;;;;;;;;36.70;58.80;;;;;;5032590;28;19913;-84
2022/09/04 15:07:49;;;;;;;;;;;38.60;56.90;;;;;;5032265;28;19975;-84
2022/09/04 15:10:23;;;;;;;;;;;39.80;55.30;;;;;;5032370;28;20015;-83
2022/09/04 15:12:52;;;;;;;;;;;40.40;53.10;;;;;;5032856;28;19951;-84